Berlin, Connecticut
Current Conditions -  °F | °C
As of 3:53 PM on Saturday 22 Nov 2014 (Local Time) from KMMK Reporting Station
Broken Clouds Broken Clouds  
Wind Chill: 34°   Ceiling: 8500
Heat Index: 40°   Visibility: 10mi
Dew Point: 15°   Wind: 9mph
Humidity: 36%   Direction: 180°S
Pressure: 30.24"   Gusts: NA
Location:  41.611°N, 72.7774°W
Report Text: KMMK 222053Z AUTO 18008KT 10SM BKN085 04/M09 A3024 RMK AO2 SLP240 T00441094 56019 TSNO
Loading
Personal Weather Stations






























Interactive Weather Map New forecast layout! Learn more

10-Day Weather Forecast

Advertisements
Track Severe Weather on mobile